Time;durP1;ratioP1;P1;durP2;ratioP2;P2;SDS_P1;SDS_P2;PMS_P1;PMS_P2;Temp;Humidity;BMP_temperature;BMP_pressure;BME280_temperature;BME280_humidity;BME280_pressure;Samples;Min_cycle;Max_cycle;Signal;HPM_P1;HPM_P2
2021/04/27 00:01:36;;;;;;;2.57;2.37;;;11.40;31.40;;;;;;5020429;28;20636;-83
2021/04/27 00:04:02;;;;;;;2.87;2.60;;;11.30;31.00;;;;;;5022056;28;20174;-83
2021/04/27 00:06:28;;;;;;;5.27;2.40;;;11.30;31.30;;;;;;5020520;28;20211;-83
2021/04/27 00:08:53;;;;;;;3.47;2.43;;;11.40;31.50;;;;;;5020136;28;20243;-83
2021/04/27 00:11:19;;;;;;;5.17;2.50;;;11.40;31.20;;;;;;5018960;28;20197;-83
2021/04/27 00:13:44;;;;;;;3.70;2.70;;;11.20;31.60;;;;;;5019122;28;20284;-83
2021/04/27 00:16:10;;;;;;;2.63;2.40;;;11.30;32.10;;;;;;5020496;28;20538;-83
2021/04/27 00:18:36;;;;;;;3.67;2.60;;;11.10;32.00;;;;;;5020055;28;20174;-83
2021/04/27 00:21:02;;;;;;;2.80;2.30;;;11.10;32.60;;;;;;5020931;28;20265;-83
2021/04/27 00:23:28;;;;;;;4.00;2.10;;;11.10;32.50;;;;;;5020832;28;20205;-83
2021/04/27 00:25:53;;;;;;;4.03;2.57;;;11.10;33.40;;;;;;5019559;28;20212;-83
2021/04/27 00:28:19;;;;;;;3.43;2.80;;;11.10;32.60;;;;;;5020547;28;20528;-83
2021/04/27 00:30:45;;;;;;;2.63;2.40;;;11.10;33.10;;;;;;5002823;28;20221;-83
2021/04/27 00:33:11;;;;;;;4.63;2.60;;;11.10;33.20;;;;;;5001835;28;20787;-83
2021/04/27 00:35:37;;;;;;;5.10;2.20;;;11.00;33.00;;;;;;5001555;28;20230;-83
2021/04/27 00:38:03;;;;;;;2.87;2.60;;;10.80;33.40;;;;;;5020602;28;20185;-83
2021/04/27 00:40:31;;;;;;;3.53;2.67;;;10.80;33.60;;;;;;5021866;28;20185;-83
2021/04/27 00:42:57;;;;;;;2.80;2.40;;;10.70;33.90;;;;;;5021806;28;20718;-83
2021/04/27 00:45:26;;;;;;;3.97;2.90;;;10.70;34.60;;;;;;5019599;28;20193;-83
2021/04/27 00:47:53;;;;;;;3.20;2.40;;;10.60;34.40;;;;;;5019649;28;20193;-83
2021/04/27 00:50:22;;;;;;;3.10;2.70;;;10.70;34.60;;;;;;5016684;28;20288;-82
2021/04/27 00:52:48;;;;;;;2.93;2.73;;;10.70;34.80;;;;;;5002137;28;20208;-83
2021/04/27 00:55:15;;;;;;;6.93;2.57;;;10.50;34.40;;;;;;5002550;28;20194;-82
2021/04/27 00:57:41;;;;;;;2.63;2.40;;;10.40;34.60;;;;;;5001129;28;20179;-83
2021/04/27 01:00:09;;;;;;;2.67;2.37;;;10.40;35.10;;;;;;5018959;28;20265;-82
2021/04/27 01:02:35;;;;;;;5.53;2.73;;;10.30;35.00;;;;;;5021705;28;20260;-83
2021/04/27 01:05:01;;;;;;;4.03;2.67;;;10.20;35.70;;;;;;5022231;28;20186;-83
2021/04/27 01:07:33;;;;;;;3.90;2.50;;;9.90;35.90;;;;;;5009240;28;20209;-82
2021/04/27 01:10:09;;;;;;;3.80;2.83;;;9.80;36.40;;;;;;5016234;28;20162;-84
2021/04/27 01:12:39;;;;;;;4.37;2.20;;;9.90;36.50;;;;;;5006223;28;20174;-83
2021/04/27 01:15:16;;;;;;;3.00;2.70;;;9.90;36.30;;;;;;5002912;28;20201;-83
2021/04/27 01:17:43;;;;;;;3.90;2.80;;;9.90;36.90;;;;;;5009608;28;20170;-83
2021/04/27 01:20:13;;;;;;;2.80;2.50;;;10.00;36.20;;;;;;5018130;28;20173;-84
2021/04/27 01:22:55;;;;;;;2.77;2.53;;;9.80;36.50;;;;;;5017166;28;20178;-83
2021/04/27 01:25:49;;;;;;;5.10;3.00;;;9.60;37.20;;;;;;5008922;28;20175;-84
2021/04/27 01:28:16;;;;;;;5.30;2.57;;;9.80;37.50;;;;;;5005512;28;20650;-83
2021/04/27 01:30:42;;;;;;;4.07;3.13;;;9.70;37.10;;;;;;5006053;28;20270;-83
2021/04/27 01:33:11;;;;;;;3.73;2.80;;;9.70;37.30;;;;;;5004799;28;20233;-82
2021/04/27 01:35:38;;;;;;;3.37;3.07;;;9.80;37.30;;;;;;5014268;28;20229;-83
2021/04/27 01:38:05;;;;;;;2.70;2.50;;;9.60;37.60;;;;;;5025239;28;20178;-83
2021/04/27 01:40:32;;;;;;;5.77;2.80;;;9.70;38.00;;;;;;5024603;28;20185;-83
2021/04/27 01:43:00;;;;;;;4.23;2.50;;;9.80;37.40;;;;;;5025363;28;20182;-82
2021/04/27 01:45:27;;;;;;;3.20;2.90;;;9.60;37.80;;;;;;5024926;28;20204;-82
2021/04/27 01:47:57;;;;;;;3.17;2.70;;;9.60;38.40;;;;;;5024921;28;20177;-82
2021/04/27 01:50:24;;;;;;;3.47;2.93;;;9.60;37.90;;;;;;5024779;28;20173;-82
2021/04/27 01:52:50;;;;;;;4.93;2.63;;;9.60;38.60;;;;;;5006414;28;20285;-82
2021/04/27 01:55:17;;;;;;;4.87;3.00;;;9.80;38.50;;;;;;5005418;28;20205;-82
2021/04/27 01:57:43;;;;;;;5.80;2.73;;;10.00;37.60;;;;;;5005454;28;20182;-83
2021/04/27 02:00:12;;;;;;;2.90;2.70;;;9.70;38.10;;;;;;5005071;28;20192;-82
2021/04/27 02:02:37;;;;;;;5.83;2.70;;;9.60;38.40;;;;;;5017045;28;20190;-83
2021/04/27 02:05:07;;;;;;;3.83;2.50;;;9.60;39.10;;;;;;5007312;28;20166;-83
2021/04/27 02:07:34;;;;;;;3.13;2.30;;;9.70;38.50;;;;;;5017204;28;20182;-83
2021/04/27 02:10:06;;;;;;;3.93;2.77;;;9.70;38.80;;;;;;5009685;28;20175;-82
2021/04/27 02:12:34;;;;;;;3.40;3.10;;;9.70;38.30;;;;;;5002599;28;20217;-83
2021/04/27 02:15:00;;;;;;;3.77;3.17;;;9.60;38.40;;;;;;5004305;28;20732;-83
2021/04/27 02:17:36;;;;;;;3.17;2.87;;;9.50;38.90;;;;;;5002974;28;20209;-82
2021/04/27 02:20:04;;;;;;;3.10;2.70;;;9.40;39.00;;;;;;5004573;28;20166;-82
2021/04/27 02:22:30;;;;;;;3.93;2.93;;;9.30;39.40;;;;;;5004862;28;20178;-82
2021/04/27 02:25:00;;;;;;;2.70;2.50;;;9.20;40.50;;;;;;5015147;28;20186;-82
2021/04/27 02:27:26;;;;;;;2.73;2.20;;;9.10;39.60;;;;;;5023621;28;20225;-82
2021/04/27 02:29:54;;;;;;;7.70;3.00;;;9.20;40.20;;;;;;5023331;28;20190;-82
2021/04/27 02:32:20;;;;;;;2.83;2.33;;;9.30;39.80;;;;;;5023250;28;20186;-82
2021/04/27 02:34:48;;;;;;;3.90;2.80;;;9.20;39.80;;;;;;5023549;28;20308;-83
2021/04/27 02:37:17;;;;;;;3.50;2.60;;;9.30;39.80;;;;;;5021728;28;20217;-82
2021/04/27 02:39:43;;;;;;;2.67;2.43;;;9.40;40.30;;;;;;5023202;28;20178;-82
2021/04/27 02:42:10;;;;;;;2.90;2.70;;;9.40;39.40;;;;;;5006790;28;20213;-82
2021/04/27 02:44:36;;;;;;;3.23;2.73;;;9.40;39.70;;;;;;5003598;28;20213;-82
2021/04/27 02:47:03;;;;;;;3.70;2.80;;;9.20;39.90;;;;;;5003283;28;20214;-82
2021/04/27 02:49:29;;;;;;;4.43;3.00;;;9.00;40.10;;;;;;5002879;28;20178;-82
2021/04/27 02:51:54;;;;;;;3.67;2.90;;;9.00;40.70;;;;;;5003108;28;20395;-83
2021/04/27 02:54:20;;;;;;;2.90;2.70;;;8.80;40.70;;;;;;5002770;28;20736;-83
2021/04/27 02:56:46;;;;;;;2.57;2.37;;;8.80;41.10;;;;;;5003323;28;20297;-83
2021/04/27 02:59:12;;;;;;;3.97;2.40;;;8.70;41.20;;;;;;5021752;28;20240;-82
2021/04/27 03:01:38;;;;;;;3.73;2.60;;;8.60;41.30;;;;;;5023305;28;20174;-83
2021/04/27 03:04:04;;;;;;;2.87;2.53;;;8.50;41.80;;;;;;5021977;28;20201;-83
2021/04/27 03:06:30;;;;;;;3.50;2.80;;;8.40;41.90;;;;;;5023233;28;20284;-83
2021/04/27 03:08:56;;;;;;;3.73;2.80;;;8.50;42.00;;;;;;5023277;28;20575;-83
2021/04/27 03:11:22;;;;;;;3.53;2.73;;;8.30;41.90;;;;;;5023558;28;20186;-83
2021/04/27 03:13:47;;;;;;;5.60;2.73;;;8.30;42.10;;;;;;5018096;28;20210;-83
2021/04/27 03:16:13;;;;;;;3.10;2.80;;;8.40;42.00;;;;;;5010101;28;20195;-83
2021/04/27 03:18:39;;;;;;;3.13;2.37;;;8.50;41.80;;;;;;5007923;28;20202;-83
2021/04/27 03:21:05;;;;;;;3.00;2.70;;;8.60;41.70;;;;;;5003095;28;20193;-83
2021/04/27 03:23:31;;;;;;;3.93;2.63;;;8.50;42.00;;;;;;5001995;28;20209;-83
2021/04/27 03:25:57;;;;;;;3.07;2.73;;;8.70;41.70;;;;;;5002713;28;20261;-83
2021/04/27 03:28:22;;;;;;;2.67;2.43;;;8.90;41.20;;;;;;5004058;28;20218;-83
2021/04/27 03:30:48;;;;;;;3.20;3.00;;;8.80;40.70;;;;;;5004307;28;20281;-83
2021/04/27 03:33:14;;;;;;;4.47;2.57;;;8.80;41.30;;;;;;5004019;28;20210;-83
2021/04/27 03:35:43;;;;;;;4.43;3.10;;;8.80;40.90;;;;;;5003444;28;20274;-83
2021/04/27 03:38:10;;;;;;;4.00;3.10;;;8.80;40.80;;;;;;5004064;28;20163;-83
2021/04/27 03:40:36;;;;;;;4.73;3.30;;;8.80;41.30;;;;;;5003569;28;20188;-82
2021/04/27 03:43:01;;;;;;;7.63;3.53;;;8.70;40.70;;;;;;5003496;28;20198;-83
2021/04/27 03:45:35;;;;;;;5.13;3.30;;;8.60;41.70;;;;;;5003664;28;20221;-82
2021/04/27 03:48:03;;;;;;;5.60;2.70;;;8.70;41.30;;;;;;5018063;28;20311;-83
2021/04/27 03:50:28;;;;;;;3.83;2.57;;;8.50;41.60;;;;;;5021819;28;20185;-82
2021/04/27 03:52:54;;;;;;;3.97;2.90;;;8.40;42.60;;;;;;5024407;28;20213;-83
2021/04/27 03:55:20;;;;;;;3.43;2.57;;;8.50;42.30;;;;;;5020982;28;20198;-83
2021/04/27 03:57:45;;;;;;;6.13;3.23;;;8.70;42.10;;;;;;5030603;28;20220;-82
2021/04/27 04:00:12;;;;;;;5.00;3.20;;;8.50;41.70;;;;;;5033879;28;20178;-83
2021/04/27 04:02:37;;;;;;;3.50;2.93;;;8.50;42.70;;;;;;5022386;28;20209;-83
2021/04/27 04:05:03;;;;;;;5.77;2.77;;;8.30;42.20;;;;;;5019431;28;20236;-82
2021/04/27 04:07:29;;;;;;;3.87;3.07;;;8.20;42.60;;;;;;5034985;28;20221;-82
2021/04/27 04:09:55;;;;;;;2.90;2.70;;;8.20;42.60;;;;;;5036365;28;20197;-82
2021/04/27 04:12:20;;;;;;;6.40;5.80;;;8.30;43.20;;;;;;5021604;28;20281;-83
2021/04/27 04:14:46;;;;;;;5.47;3.70;;;8.30;42.80;;;;;;5022767;28;20267;-83
2021/04/27 04:17:12;;;;;;;4.97;3.30;;;8.20;42.80;;;;;;5022498;28;20201;-82
2021/04/27 04:19:38;;;;;;;3.37;3.00;;;8.20;43.20;;;;;;5022316;28;20188;-82
2021/04/27 04:22:05;;;;;;;4.20;3.13;;;8.10;43.00;;;;;;5030902;28;20189;-82
2021/04/27 04:24:31;;;;;;;3.10;2.70;;;8.20;43.40;;;;;;5025884;28;20249;-83
2021/04/27 04:26:57;;;;;;;3.20;2.90;;;8.20;43.10;;;;;;5034145;28;20255;-83
2021/04/27 04:29:24;;;;;;;5.53;4.93;;;8.30;43.10;;;;;;5032145;28;20197;-83
2021/04/27 04:31:51;;;;;;;6.13;4.10;;;8.10;43.30;;;;;;5020950;28;20197;-82
2021/04/27 04:34:17;;;;;;;4.17;3.63;;;8.10;43.50;;;;;;5011133;28;20206;-83
2021/04/27 04:36:43;;;;;;;5.33;3.57;;;8.10;43.90;;;;;;5019927;28;20228;-82
2021/04/27 04:39:09;;;;;;;4.33;3.10;;;8.00;43.60;;;;;;5020332;28;20241;-83
2021/04/27 04:41:34;;;;;;;4.07;2.93;;;7.90;44.00;;;;;;5008145;28;20194;-82
2021/04/27 04:44:00;;;;;;;4.00;2.43;;;7.80;44.20;;;;;;5001541;28;20193;-83
2021/04/27 04:46:26;;;;;;;4.53;2.77;;;8.00;44.60;;;;;;5000015;28;20214;-82
2021/04/27 04:48:52;;;;;;;3.07;2.60;;;8.00;43.60;;;;;;5001924;28;20218;-83
2021/04/27 04:51:17;;;;;;;6.37;3.20;;;8.10;43.70;;;;;;5001027;28;20295;-81
2021/04/27 04:53:43;;;;;;;3.60;2.83;;;8.00;43.90;;;;;;5021152;28;20232;-82
2021/04/27 04:56:08;;;;;;;5.40;2.93;;;7.90;44.20;;;;;;5023408;28;20281;-82
2021/04/27 04:58:34;;;;;;;2.97;2.40;;;7.80;44.40;;;;;;5021543;28;20193;-81
2021/04/27 05:01:00;;;;;;;3.50;2.50;;;7.60;44.70;;;;;;5015862;28;20197;-82
2021/04/27 05:03:26;;;;;;;3.47;2.90;;;7.80;45.00;;;;;;5021200;28;20190;-82
2021/04/27 05:05:51;;;;;;;5.80;2.63;;;8.00;44.10;;;;;;5009993;28;20236;-82
2021/04/27 05:08:26;;;;;;;2.87;2.57;;;7.90;44.10;;;;;;5024357;28;20248;-82
2021/04/27 05:10:52;;;;;;;4.13;2.80;;;7.90;44.00;;;;;;5029693;28;20181;-82
2021/04/27 05:13:17;;;;;;;5.70;2.70;;;8.00;44.00;;;;;;5019712;28;20219;-81
2021/04/27 05:15:43;;;;;;;3.50;2.57;;;8.00;43.90;;;;;;5022123;28;20212;-81
2021/04/27 05:18:10;;;;;;;4.23;3.10;;;7.80;44.20;;;;;;5022720;28;20181;-82
2021/04/27 05:20:35;;;;;;;5.77;2.57;;;7.90;44.50;;;;;;5017219;28;20216;-81
2021/04/27 05:23:02;;;;;;;3.53;2.73;;;7.90;45.30;;;;;;5021543;28;20205;-81
2021/04/27 05:25:29;;;;;;;3.00;2.63;;;7.90;44.40;;;;;;5021370;28;20289;-81
2021/04/27 05:27:54;;;;;;;4.97;3.03;;;8.10;44.80;;;;;;5007058;28;20217;-82
2021/04/27 05:30:20;;;;;;;3.63;2.70;;;8.10;43.80;;;;;;5022717;28;20628;-81
2021/04/27 05:32:46;;;;;;;4.67;2.60;;;8.00;44.10;;;;;;5026917;28;20190;-81
2021/04/27 05:35:12;;;;;;;3.33;2.80;;;7.90;44.80;;;;;;5036525;28;20196;-81
2021/04/27 05:37:38;;;;;;;6.13;2.73;;;8.00;44.40;;;;;;5037256;28;20201;-81
2021/04/27 05:40:04;;;;;;;4.37;2.80;;;8.00;43.80;;;;;;5036631;28;20186;-82
2021/04/27 05:42:30;;;;;;;6.27;3.20;;;7.80;44.40;;;;;;5037183;28;20169;-82
2021/04/27 05:44:56;;;;;;;3.07;2.77;;;7.80;44.20;;;;;;5036440;28;20283;-81
2021/04/27 05:47:21;;;;;;;3.33;2.57;;;8.00;44.50;;;;;;5028197;28;20289;-81
2021/04/27 05:49:47;;;;;;;5.03;3.40;;;8.00;44.30;;;;;;5002547;28;20213;-81
2021/04/27 05:52:13;;;;;;;2.93;2.33;;;8.10;44.20;;;;;;5002915;28;20189;-81
2021/04/27 05:54:38;;;;;;;4.07;3.03;;;8.20;44.70;;;;;;5021192;28;20209;-81
2021/04/27 05:57:04;;;;;;;2.83;2.43;;;8.20;43.30;;;;;;5012694;28;20288;-79
2021/04/27 05:59:30;;;;;;;2.63;2.43;;;8.00;43.90;;;;;;5020799;28;20261;-81
2021/04/27 06:01:56;;;;;;;3.97;2.93;;;8.10;43.90;;;;;;5009817;28;20210;-81
2021/04/27 06:04:22;;;;;;;2.80;2.60;;;8.40;43.80;;;;;;5017650;28;20193;-82
2021/04/27 06:06:47;;;;;;;3.87;2.93;;;8.30;42.50;;;;;;5022400;28;20218;-81
2021/04/27 06:09:16;;;;;;;4.87;3.20;;;8.30;43.30;;;;;;5019143;28;20177;-80
2021/04/27 06:11:42;;;;;;;6.67;3.37;;;8.40;43.30;;;;;;5014905;28;20194;-82
2021/04/27 06:14:08;;;;;;;5.77;2.93;;;8.30;43.50;;;;;;5025054;28;20229;-81
2021/04/27 06:16:34;;;;;;;10.03;3.43;;;8.20;43.90;;;;;;5023977;28;20209;-82
2021/04/27 06:19:00;;;;;;;7.83;3.13;;;8.10;43.90;;;;;;5024245;28;20541;-80
2021/04/27 06:21:25;;;;;;;3.80;3.00;;;8.20;44.00;;;;;;5018761;28;20211;-80
2021/04/27 06:23:51;;;;;;;5.00;2.60;;;8.30;44.50;;;;;;5015054;28;20182;-81
2021/04/27 06:26:19;;;;;;;3.17;2.53;;;8.30;43.60;;;;;;5008203;28;20555;-82
2021/04/27 06:28:44;;;;;;;5.47;2.90;;;8.30;43.10;;;;;;5022633;28;20202;-83
2021/04/27 06:31:10;;;;;;;4.27;2.60;;;8.30;43.50;;;;;;5016404;28;20224;-82
2021/04/27 06:33:36;;;;;;;3.03;2.60;;;8.40;43.50;;;;;;5008606;28;20225;-81
2021/04/27 06:36:02;;;;;;;3.50;2.80;;;8.30;43.10;;;;;;5016759;28;20230;-80
2021/04/27 06:38:28;;;;;;;5.33;3.20;;;8.50;43.10;;;;;;5017406;28;20823;-81
2021/04/27 06:40:54;;;;;;;3.77;3.13;;;8.60;43.20;;;;;;5016962;28;20195;-81
2021/04/27 06:43:20;;;;;;;6.47;2.87;;;8.70;43.10;;;;;;5018335;28;20182;-80
2021/04/27 06:45:46;;;;;;;3.77;2.90;;;8.90;43.00;;;;;;5029466;28;20227;-79
2021/04/27 06:48:12;;;;;;;4.67;3.13;;;8.90;41.90;;;;;;5023600;28;20198;-79
2021/04/27 06:50:39;;;;;;;5.30;2.90;;;8.80;42.20;;;;;;5026007;28;20187;-80
2021/04/27 06:53:05;;;;;;;4.50;3.13;;;8.80;42.20;;;;;;5027137;28;20210;-81
2021/04/27 06:55:32;;;;;;;5.97;3.37;;;8.80;42.10;;;;;;5027135;28;20213;-79
2021/04/27 06:58:10;;;;;;;3.90;3.00;;;8.70;42.20;;;;;;5031778;28;20178;-81
2021/04/27 07:00:37;;;;;;;5.07;3.23;;;8.80;42.40;;;;;;5015608;28;20197;-81
2021/04/27 07:03:03;;;;;;;6.43;3.80;;;8.90;42.00;;;;;;5009555;28;20194;-81
2021/04/27 07:05:29;;;;;;;4.43;3.17;;;8.90;42.20;;;;;;5023804;28;20753;-82
2021/04/27 07:07:55;;;;;;;5.13;3.23;;;9.10;42.20;;;;;;5005609;28;20182;-82
2021/04/27 07:10:22;;;;;;;9.67;3.33;;;9.10;41.60;;;;;;5009660;28;20201;-81
2021/04/27 07:12:48;;;;;;;19.67;4.07;;;9.30;41.60;;;;;;5020381;28;20210;-80
2021/04/27 07:15:14;;;;;;;4.37;2.83;;;9.30;41.70;;;;;;5008050;28;20217;-81
2021/04/27 07:17:40;;;;;;;3.97;3.20;;;9.60;42.30;;;;;;5013831;28;20189;-82
2021/04/27 07:20:07;;;;;;;5.70;3.20;;;9.50;41.00;;;;;;5007269;28;20190;-81
2021/04/27 07:22:33;;;;;;;3.90;3.10;;;9.70;41.20;;;;;;5027177;22;20244;-84
2021/04/27 07:24:58;;;;;;;5.33;3.73;;;9.80;40.60;;;;;;4999880;28;20186;-85
2021/04/27 07:27:24;;;;;;;5.30;3.40;;;9.90;40.50;;;;;;5003897;28;20257;-85
2021/04/27 07:29:50;;;;;;;8.97;3.43;;;9.90;40.70;;;;;;5003604;28;20190;-84
2021/04/27 07:32:16;;;;;;;6.77;3.30;;;9.90;40.10;;;;;;5000914;28;20209;-85
2021/04/27 07:34:42;;;;;;;6.80;4.17;;;9.60;41.00;;;;;;5002020;28;20237;-85
2021/04/27 07:37:08;;;;;;;5.27;3.50;;;9.70;41.30;;;;;;5000542;28;20712;-85
2021/04/27 07:39:34;;;;;;;5.00;3.60;;;9.90;40.50;;;;;;5003224;28;20688;-85
2021/04/27 07:42:00;;;;;;;5.50;3.53;;;10.00;40.10;;;;;;5002727;28;20738;-86
2021/04/27 07:44:26;;;;;;;7.13;3.63;;;10.30;39.80;;;;;;5000632;28;20284;-85
2021/04/27 07:46:52;;;;;;;5.00;3.70;;;10.30;39.70;;;;;;5006485;28;20226;-84
2021/04/27 07:49:17;;;;;;;6.23;4.30;;;10.40;39.40;;;;;;5005009;28;20309;-86
2021/04/27 07:51:44;;;;;;;8.17;3.73;;;10.40;39.30;;;;;;5003009;28;20191;-85
2021/04/27 07:54:11;;;;;;;4.47;3.63;;;10.50;39.30;;;;;;5001515;28;20229;-86
2021/04/27 07:56:37;;;;;;;8.20;3.80;;;10.60;39.30;;;;;;5002774;28;20281;-85
2021/04/27 07:59:05;;;;;;;5.37;3.70;;;10.70;39.20;;;;;;4996017;28;20195;-85
2021/04/27 08:01:33;;;;;;;4.03;3.63;;;10.70;39.50;;;;;;5002192;28;20249;-84
2021/04/27 08:03:59;;;;;;;7.50;3.80;;;10.70;39.50;;;;;;5003056;28;20249;-86
2021/04/27 08:06:25;;;;;;;4.13;3.73;;;10.90;38.70;;;;;;5002063;28;20345;-85
2021/04/27 08:08:51;;;;;;;5.17;3.90;;;11.20;38.80;;;;;;5005734;28;20194;-85
2021/04/27 08:11:17;;;;;;;5.30;4.47;;;11.40;38.30;;;;;;5004671;28;20200;-86
2021/04/27 08:13:43;;;;;;;6.20;3.77;;;11.60;38.00;;;;;;5003377;28;20576;-86
2021/04/27 08:16:09;;;;;;;6.13;3.73;;;11.60;37.40;;;;;;4998945;28;20191;-86
2021/04/27 08:18:36;;;;;;;5.47;3.47;;;11.60;37.90;;;;;;4998773;28;20210;-84
2021/04/27 08:21:07;;;;;;;7.60;3.70;;;11.70;37.90;;;;;;5003517;28;20186;-86
2021/04/27 08:23:35;;;;;;;5.30;4.20;;;11.70;37.60;;;;;;5004890;28;20800;-86
2021/04/27 08:26:01;;;;;;;5.50;4.30;;;11.80;37.10;;;;;;5003540;28;20288;-86
2021/04/27 08:28:27;;;;;;;4.20;3.80;;;11.90;36.80;;;;;;5007502;28;20298;-85
2021/04/27 08:30:53;;;;;;;4.87;4.10;;;12.10;36.80;;;;;;5005546;28;20189;-86
2021/04/27 08:33:19;;;;;;;6.73;4.37;;;12.20;36.70;;;;;;5003010;28;20273;-86
2021/04/27 08:35:45;;;;;;;6.33;3.93;;;12.40;36.90;;;;;;5002901;28;20182;-86
2021/04/27 08:38:11;;;;;;;5.00;4.17;;;12.50;36.40;;;;;;5005548;28;20195;-86
2021/04/27 08:40:36;;;;;;;4.60;4.20;;;12.50;36.00;;;;;;5004059;28;20261;-85
2021/04/27 08:43:03;;;;;;;8.07;4.30;;;12.50;36.40;;;;;;5005861;28;20214;-86
2021/04/27 08:45:29;;;;;;;5.53;4.37;;;12.70;35.60;;;;;;5005024;28;20186;-86
2021/04/27 08:47:55;;;;;;;5.70;4.20;;;12.70;35.80;;;;;;4997991;28;20289;-85
2021/04/27 08:50:21;;;;;;;5.87;4.20;;;12.70;35.80;;;;;;5003762;28;20289;-85
2021/04/27 08:52:47;;;;;;;7.77;3.90;;;12.60;36.20;;;;;;5006199;28;20221;-86
2021/04/27 08:55:14;;;;;;;7.13;4.20;;;12.70;36.00;;;;;;5006622;28;20194;-86
2021/04/27 08:57:40;;;;;;;5.63;4.40;;;12.80;36.00;;;;;;4987576;28;20214;-86
2021/04/27 09:00:13;;;;;;;7.23;4.30;;;12.70;36.10;;;;;;5007094;28;20229;-85
2021/04/27 09:02:39;;;;;;;7.53;5.00;;;13.00;36.10;;;;;;5002320;28;20253;-86
2021/04/27 09:05:19;;;;;;;4.93;4.40;;;13.30;36.00;;;;;;4998483;28;20211;-85
2021/04/27 09:07:45;;;;;;;6.77;4.50;;;13.30;35.40;;;;;;5002956;28;20201;-85
2021/04/27 09:10:25;;;;;;;8.33;4.70;;;13.40;35.40;;;;;;5004632;28;20195;-86
2021/04/27 09:12:56;;;;;;;6.03;4.33;;;13.50;35.10;;;;;;5001619;28;20731;-86
2021/04/27 09:15:35;;;;;;;9.10;5.07;;;13.60;34.90;;;;;;5004145;28;20198;-86
2021/04/27 09:18:33;;;;;;;5.37;4.80;;;13.70;34.80;;;;;;4993597;28;20913;-85
2021/04/27 09:21:09;;;;;;;5.70;4.73;;;13.70;34.90;;;;;;5002422;28;20679;-86
2021/04/27 09:23:42;;;;;;;5.90;4.70;;;13.80;34.80;;;;;;5004251;28;20222;-87
2021/04/27 09:26:19;;;;;;;7.40;5.30;;;13.70;34.60;;;;;;4986354;28;20195;-86
2021/04/27 09:28:51;;;;;;;8.50;4.70;;;14.10;35.20;;;;;;5000107;28;20195;-87
2021/04/27 09:31:26;;;;;;;5.77;4.70;;;14.30;34.20;;;;;;4997827;28;20222;-86
2021/04/27 09:33:53;;;;;;;7.83;5.17;;;14.60;33.80;;;;;;5001508;28;20294;-86
2021/04/27 09:36:24;;;;;;;7.27;4.70;;;14.70;33.40;;;;;;4999236;28;20201;-86
2021/04/27 09:38:54;;;;;;;8.53;5.50;;;15.00;33.60;;;;;;5018380;28;20746;-86
2021/04/27 09:41:26;;;;;;;6.30;5.67;;;15.10;32.50;;;;;;4997567;28;20208;-87
2021/04/27 09:43:52;;;;;;;6.90;5.57;;;14.90;32.70;;;;;;4990795;28;20275;-87
2021/04/27 09:46:21;;;;;;;8.17;5.87;;;15.10;32.90;;;;;;5001806;28;20268;-87
2021/04/27 09:49:00;;;;;;;6.03;5.53;;;15.10;33.30;;;;;;4996488;28;20198;-87
2021/04/27 09:51:30;;;;;;;5.37;4.87;;;15.40;32.50;;;;;;5000650;28;20216;-86
2021/04/27 09:53:59;;;;;;;6.13;5.03;;;15.60;32.50;;;;;;4999333;28;20222;-87
2021/04/27 09:56:50;;;;;;;5.97;5.30;;;15.90;31.50;;;;;;4999264;28;20201;-86
2021/04/27 09:59:28;;;;;;;6.13;5.20;;;15.50;32.20;;;;;;5005927;28;20806;-86
2021/04/27 10:02:00;;;;;;;7.37;6.23;;;15.50;31.90;;;;;;5005003;28;20190;-85
2021/04/27 10:04:27;;;;;;;8.93;5.83;;;15.60;31.80;;;;;;4998387;28;20225;-86
2021/04/27 10:06:54;;;;;;;6.33;5.40;;;15.80;31.90;;;;;;5000652;28;20198;-87
2021/04/27 10:09:20;;;;;;;10.10;5.70;;;15.70;32.10;;;;;;4999815;28;20190;-85
2021/04/27 10:11:48;;;;;;;9.30;6.60;;;16.20;31.50;;;;;;4999009;28;20225;-86
2021/04/27 10:14:14;;;;;;;7.50;6.30;;;16.40;31.40;;;;;;4996252;28;20227;-86
2021/04/27 10:16:40;;;;;;;6.63;6.03;;;16.60;30.50;;;;;;4996771;28;20182;-87
2021/04/27 10:19:08;;;;;;;6.60;5.77;;;16.40;30.70;;;;;;4996278;28;20202;-87
2021/04/27 10:21:35;;;;;;;8.40;5.80;;;16.20;31.00;;;;;;5000871;28;20238;-86
2021/04/27 10:24:04;;;;;;;7.23;6.23;;;16.50;31.00;;;;;;4998748;28;20714;-85
2021/04/27 10:26:32;;;;;;;7.07;6.20;;;16.80;30.40;;;;;;4993052;28;20197;-86
2021/04/27 10:29:21;;;;;;;6.50;5.83;;;16.90;29.90;;;;;;4995902;28;20788;-86
2021/04/27 10:32:08;;;;;;;7.33;6.57;;;17.10;30.00;;;;;;5012476;28;20202;-85
2021/04/27 10:34:34;;;;;;;8.83;5.90;;;17.60;29.80;;;;;;5005903;28;20225;-84
2021/04/27 10:36:59;;;;;;;9.70;6.20;;;17.80;29.40;;;;;;5015007;28;20192;-85
2021/04/27 10:39:43;;;;;;;7.60;6.70;;;17.70;29.30;;;;;;5013670;28;20209;-85
2021/04/27 10:42:30;;;;;;;8.30;7.10;;;18.00;29.30;;;;;;4999689;28;20197;-85
2021/04/27 10:45:01;;;;;;;7.10;6.47;;;18.10;29.00;;;;;;5004120;28;20263;-85
2021/04/27 10:47:30;;;;;;;6.57;5.97;;;18.10;29.00;;;;;;4996553;28;20213;-85
2021/04/27 10:49:57;;;;;;;7.50;6.40;;;18.30;29.00;;;;;;5003973;28;20189;-85
2021/04/27 10:52:34;;;;;;;7.13;6.53;;;18.30;28.40;;;;;;4999356;28;20357;-87
2021/04/27 10:55:26;;;;;;;9.43;6.67;;;18.30;28.10;;;;;;5002129;28;20226;-86
2021/04/27 10:57:54;;;;;;;7.60;6.73;;;18.20;28.30;;;;;;4999498;28;20217;-88
2021/04/27 11:00:43;;;;;;;9.43;6.00;;;18.60;28.20;;;;;;4996702;28;20256;-85
2021/04/27 11:03:24;;;;;;;6.90;6.20;;;18.50;27.60;;;;;;5000710;28;20214;-85
2021/04/27 11:06:04;;;;;;;7.50;6.83;;;18.90;27.40;;;;;;4997631;28;20196;-86
2021/04/27 11:09:00;;;;;;;8.47;6.73;;;18.90;27.30;;;;;;5000257;28;20203;-86
2021/04/27 11:11:31;;;;;;;12.00;6.67;;;18.80;27.60;;;;;;4994878;28;20269;-86
2021/04/27 11:14:12;;;;;;;7.70;6.70;;;19.00;27.60;;;;;;5000037;28;20305;-86
2021/04/27 11:16:39;;;;;;;7.13;6.47;;;19.40;28.00;;;;;;4999478;28;20183;-86
2021/04/27 11:19:32;;;;;;;7.40;6.30;;;19.70;25.60;;;;;;5003437;28;20189;-86
2021/04/27 11:22:23;;;;;;;8.07;7.23;;;19.60;25.30;;;;;;4999112;28;20203;-86
2021/04/27 11:24:49;;;;;;;7.57;6.70;;;19.40;25.80;;;;;;4980192;28;20970;-86
2021/04/27 11:27:28;;;;;;;13.03;6.57;;;19.60;26.60;;;;;;5002648;28;20231;-86
2021/04/27 11:29:58;;;;;;;10.70;6.90;;;20.30;25.10;;;;;;5001080;28;20212;-86
2021/04/27 11:32:24;;;;;;;9.13;6.57;;;20.60;24.30;;;;;;5001344;28;20292;-86
2021/04/27 11:34:55;;;;;;;8.98;8.02;;;20.50;23.90;;;;;;5000458;28;20268;-86
2021/04/27 11:37:36;;;;;;;6.75;6.05;;;20.90;24.50;;;;;;4999706;28;20189;-87
2021/04/27 11:40:16;;;;;;;7.70;6.88;;;21.00;23.70;;;;;;5000013;28;20209;-86
2021/04/27 11:42:42;;;;;;;9.95;6.88;;;21.10;24.00;;;;;;5001524;28;20240;-86
2021/04/27 11:45:11;;;;;;;8.57;6.63;;;20.70;23.90;;;;;;5002893;28;20185;-86
2021/04/27 11:47:40;;;;;;;8.68;6.90;;;20.80;24.00;;;;;;5002098;28;20178;-86
2021/04/27 11:50:17;;;;;;;8.97;6.80;;;20.50;24.50;;;;;;4986056;28;20227;-87
2021/04/27 11:52:45;;;;;;;7.60;6.90;;;20.50;24.30;;;;;;5001579;28;20214;-86
2021/04/27 11:55:49;;;;;;;8.30;6.70;;;20.50;24.60;;;;;;4999627;28;20244;-85
2021/04/27 11:58:20;;;;;;;8.00;6.93;;;20.40;24.40;;;;;;5002675;28;20185;-87
2021/04/27 12:00:53;;;;;;;6.93;6.43;;;20.70;24.40;;;;;;5000260;28;20179;-86
2021/04/27 12:03:24;;;;;;;7.60;6.80;;;20.70;24.30;;;;;;5002282;28;20204;-88
2021/04/27 12:05:56;;;;;;;7.60;6.72;;;20.90;24.30;;;;;;5001722;28;20201;-86
2021/04/27 12:08:25;;;;;;;8.00;7.22;;;21.50;24.40;;;;;;4998828;28;20206;-86
2021/04/27 12:11:15;;;;;;;7.63;6.93;;;21.80;23.50;;;;;;5002435;28;20212;-86
2021/04/27 12:13:51;;;;;;;7.13;6.45;;;21.40;23.00;;;;;;4995793;28;20249;-86
2021/04/27 12:16:18;;;;;;;8.40;6.75;;;21.60;22.40;;;;;;5001357;28;20178;-87
2021/04/27 12:18:58;;;;;;;8.45;7.07;;;21.40;22.40;;;;;;5004131;28;20207;-87
2021/04/27 12:21:44;;;;;;;7.57;6.55;;;21.60;22.70;;;;;;5002209;28;20189;-88
2021/04/27 12:24:29;;;;;;;7.82;7.05;;;21.70;22.90;;;;;;5002732;28;20297;-87
2021/04/27 12:27:04;;;;;;;7.22;6.63;;;21.70;22.30;;;;;;5000819;28;20235;-87
2021/04/27 12:29:59;;;;;;;7.40;6.80;;;22.00;22.80;;;;;;5000108;28;20242;-87
2021/04/27 12:32:31;;;;;;;7.38;6.70;;;22.20;22.50;;;;;;5001393;28;20234;-87
2021/04/27 12:35:05;;;;;;;8.45;7.20;;;22.70;22.40;;;;;;4985814;28;20218;-88
2021/04/27 12:37:35;;;;;;;7.55;6.85;;;22.40;22.30;;;;;;5002385;28;20189;-87
2021/04/27 12:40:03;;;;;;;7.55;6.90;;;22.80;22.30;;;;;;4999124;28;20291;-87
2021/04/27 12:42:31;;;;;;;14.40;8.02;;;23.00;21.80;;;;;;5001652;28;20286;-87
2021/04/27 12:44:58;;;;;;;15.23;8.63;;;22.90;21.70;;;;;;5002827;28;20178;-88
2021/04/27 12:47:35;;;;;;;9.13;7.22;;;22.50;22.40;;;;;;5003277;28;20253;-88
2021/04/27 12:50:10;;;;;;;8.45;7.35;;;22.50;22.00;;;;;;5000599;28;20221;-88
2021/04/27 12:52:49;;;;;;;16.45;7.50;;;22.60;21.90;;;;;;4994053;28;20240;-86
2021/04/27 12:55:25;;;;;;;16.55;7.45;;;22.90;21.30;;;;;;4998256;28;20183;-88
2021/04/27 12:58:10;;;;;;;10.05;7.85;;;23.20;21.70;;;;;;4991233;28;20232;-86
2021/04/27 13:00:48;;;;;;;27.45;8.93;;;23.60;21.40;;;;;;5003635;28;20843;-87